Time;durP1;ratioP1;P1;durP2;ratioP2;P2;SDS_P1;SDS_P2;PMS_P1;PMS_P2;Temp;Humidity;BMP_temperature;BMP_pressure;BME280_temperature;BME280_humidity;BME280_pressure;Samples;Min_cycle;Max_cycle;Signal;HPM_P1;HPM_P2
2023/04/08 00:00:31;;;;;;;21.33;12.30;;;8.70;99.90;;;;;;5036739;28;20028;-87
2023/04/08 00:02:57;;;;;;;21.08;11.25;;;8.70;99.90;;;;;;5033805;28;20499;-84
2023/04/08 00:05:23;;;;;;;15.40;8.90;;;9.10;99.90;;;;;;5022401;28;20033;-85
2023/04/08 00:07:48;;;;;;;17.88;10.70;;;8.70;99.90;;;;;;5020658;28;20084;-86
2023/04/08 00:10:14;;;;;;;22.08;15.32;;;9.40;99.90;;;;;;5021783;28;20502;-83
2023/04/08 00:12:40;;;;;;;26.42;16.23;;;9.10;99.90;;;;;;5034199;28;20022;-86
2023/04/08 00:15:06;;;;;;;27.92;17.25;;;8.70;99.90;;;;;;5026204;28;20028;-87
2023/04/08 00:17:32;;;;;;;27.30;18.00;;;8.70;99.90;;;;;;5039111;28;20034;-85
2023/04/08 00:19:57;;;;;;;31.58;19.02;;;9.20;99.90;;;;;;5023447;28;20020;-87
2023/04/08 00:22:23;;;;;;;29.02;16.98;;;8.60;99.90;;;;;;5038911;28;20055;-89
2023/04/08 00:24:49;;;;;;;26.67;15.90;;;8.60;99.90;;;;;;5034959;28;20073;-87
2023/04/08 00:27:14;;;;;;;27.85;17.02;;;8.40;99.90;;;;;;5026536;28;20045;-88
2023/04/08 00:29:43;;;;;;;29.15;16.67;;;9.30;99.90;;;;;;5038150;28;20022;-88
2023/04/08 00:32:08;;;;;;;28.00;16.50;;;8.40;99.90;;;;;;5042792;28;20025;-87
2023/04/08 00:34:34;;;;;;;24.90;15.02;;;8.40;99.90;;;;;;5027642;28;20033;-86
2023/04/08 00:37:00;;;;;;;26.38;15.73;;;8.40;99.90;;;;;;5021345;28;20021;-89
2023/04/08 00:39:25;;;;;;;24.27;13.52;;;8.40;99.90;;;;;;5014966;28;20096;-89
2023/04/08 00:41:51;;;;;;;24.67;13.85;;;8.50;99.90;;;;;;5023690;28;20188;-88
2023/04/08 00:44:16;;;;;;;24.20;13.90;;;8.20;99.90;;;;;;5041737;28;20022;-88
2023/04/08 00:46:42;;;;;;;19.88;13.32;;;8.30;99.90;;;;;;5023379;28;20079;-87
2023/04/08 00:49:08;;;;;;;19.85;12.10;;;8.50;99.90;;;;;;5017199;28;20071;-84
2023/04/08 00:51:37;;;;;;;20.40;12.13;;;8.40;99.90;;;;;;5019514;28;20033;-88
2023/04/08 00:54:04;;;;;;;17.23;12.20;;;8.40;99.90;;;;;;5042193;28;20578;-86
2023/04/08 00:56:31;;;;;;;18.48;12.80;;;8.30;99.90;;;;;;5020548;28;20021;-86
2023/04/08 00:58:58;;;;;;;32.38;18.15;;;8.30;99.90;;;;;;5027325;28;20040;-86
2023/04/08 01:01:38;;;;;;;29.23;16.52;;;8.50;99.90;;;;;;5019781;28;20044;-88
2023/04/08 01:04:24;;;;;;;20.73;12.15;;;8.30;99.90;;;;;;5020361;28;20034;-86
2023/04/08 01:07:16;;;;;;;21.52;13.45;;;8.30;99.90;;;;;;5018520;28;20048;-86
2023/04/08 01:09:47;;;;;;;19.85;12.40;;;8.40;99.90;;;;;;5038407;28;20491;-87
2023/04/08 01:12:20;;;;;;;19.20;11.07;;;8.40;99.90;;;;;;5019684;28;20503;-85
2023/04/08 01:14:48;;;;;;;20.40;11.65;;;8.50;99.90;;;;;;5020068;28;21055;-86
2023/04/08 01:17:18;;;;;;;18.90;11.32;;;8.60;99.90;;;;;;5023675;28;20033;-85
2023/04/08 01:19:46;;;;;;;19.02;11.73;;;8.50;99.90;;;;;;5045138;28;20021;-88
2023/04/08 01:22:27;;;;;;;18.88;12.32;;;8.50;99.90;;;;;;5021320;28;20026;-91
2023/04/08 01:25:06;;;;;;;;;;;8.30;99.90;;;;;;5045766;28;20014;-84
2023/04/08 01:27:34;;;;;;;19.10;12.05;;;8.30;99.90;;;;;;5041018;28;19905;-89
2023/04/08 01:30:03;;;;;;;20.45;12.63;;;8.90;99.90;;;;;;5019827;28;20021;-87
2023/04/08 01:32:30;;;;;;;19.75;12.32;;;8.20;99.90;;;;;;5035538;28;20082;-85
2023/04/08 01:34:58;;;;;;;20.42;12.63;;;8.20;99.90;;;;;;5023989;28;20045;-87
2023/04/08 01:37:27;;;;;;;19.80;11.82;;;8.10;99.90;;;;;;5028482;28;20017;-83
2023/04/08 01:39:54;;;;;;;18.45;12.10;;;8.30;99.90;;;;;;5027997;28;20030;-84
2023/04/08 01:42:21;;;;;;;17.38;11.82;;;8.10;99.90;;;;;;5026694;28;20025;-87
2023/04/08 01:44:48;;;;;;;19.92;11.93;;;8.10;99.90;;;;;;5028084;28;20030;-87
2023/04/08 01:47:14;;;;;;;18.90;12.38;;;8.10;99.90;;;;;;5027144;28;20021;-87
2023/04/08 01:49:41;;;;;;;21.13;12.07;;;8.10;99.90;;;;;;5029222;28;20029;-87
2023/04/08 01:52:09;;;;;;;21.17;12.18;;;8.80;99.90;;;;;;5040806;28;20022;-86
2023/04/08 01:54:35;;;;;;;23.70;13.15;;;8.80;99.90;;;;;;5027460;28;20025;-85
2023/04/08 01:57:05;;;;;;;24.20;13.88;;;8.20;99.90;;;;;;5022730;28;20026;-86
2023/04/08 01:59:34;;;;;;;25.92;14.82;;;8.00;99.90;;;;;;5026740;28;20033;-83
2023/04/08 02:02:04;;;;;;;24.02;13.77;;;8.60;99.90;;;;;;5023966;28;20052;-88
2023/04/08 02:04:30;;;;;;;19.92;12.50;;;8.00;99.90;;;;;;5027425;28;20096;-88
2023/04/08 02:06:56;;;;;;;17.58;11.30;;;8.10;99.90;;;;;;5032440;28;20013;-88
2023/04/08 02:09:22;;;;;;;16.88;10.73;;;8.00;99.90;;;;;;5049217;28;20662;-87
2023/04/08 02:11:47;;;;;;;18.27;10.73;;;8.00;99.90;;;;;;5027516;28;20033;-89
2023/04/08 02:14:13;;;;;;;17.52;11.32;;;8.00;99.90;;;;;;5019822;28;20018;-87
2023/04/08 02:17:03;;;;;;;16.60;10.40;;;8.00;99.90;;;;;;5008813;28;20077;-85
2023/04/08 02:19:35;;;;;;;22.05;12.60;;;7.90;99.90;;;;;;5035403;28;20021;-87
2023/04/08 02:22:10;;;;;;;24.73;12.23;;;7.90;99.90;;;;;;5029678;28;20056;-87
2023/04/08 02:24:39;;;;;;;18.38;11.48;;;7.90;99.90;;;;;;5035696;28;20036;-89
2023/04/08 02:27:06;;;;;;;19.15;11.68;;;7.80;99.90;;;;;;5020663;28;20487;-88
2023/04/08 02:29:33;;;;;;;18.50;11.07;;;7.80;99.90;;;;;;5033816;28;20045;-89
2023/04/08 02:32:00;;;;;;;17.88;11.48;;;8.30;99.90;;;;;;5022703;28;20026;-88
2023/04/08 02:34:27;;;;;;;19.20;11.25;;;7.80;99.90;;;;;;5022704;28;20097;-88
2023/04/08 02:36:53;;;;;;;21.30;12.00;;;7.80;99.90;;;;;;5038064;28;20033;-87
2023/04/08 02:39:18;;;;;;;19.95;11.35;;;7.70;99.90;;;;;;5017246;28;20419;-88
2023/04/08 02:41:44;;;;;;;18.20;11.27;;;7.80;99.90;;;;;;5023524;28;20033;-81
2023/04/08 02:44:10;;;;;;;18.38;10.70;;;7.70;99.90;;;;;;5023215;28;20025;-87
2023/04/08 02:46:35;;;;;;;16.38;10.63;;;7.70;99.90;;;;;;5034228;28;20229;-86
2023/04/08 02:49:01;;;;;;;16.83;10.68;;;7.70;99.90;;;;;;5039279;28;20117;-86
2023/04/08 02:51:26;;;;;;;14.93;10.45;;;7.90;99.90;;;;;;5022969;28;20025;-85
2023/04/08 02:53:52;;;;;;;20.00;11.68;;;7.80;99.90;;;;;;5031703;28;20018;-86
2023/04/08 02:56:18;;;;;;;17.17;11.40;;;7.80;99.90;;;;;;5024117;28;20413;-85
2023/04/08 02:58:44;;;;;;;19.42;11.25;;;7.80;99.90;;;;;;5026810;28;20025;-87
2023/04/08 03:01:10;;;;;;;18.30;11.23;;;7.80;99.90;;;;;;5017090;28;20029;-86
2023/04/08 03:03:36;;;;;;;18.23;11.93;;;8.30;99.90;;;;;;5031435;28;20034;-86
2023/04/08 03:06:02;;;;;;;17.52;10.45;;;8.60;99.90;;;;;;5035352;28;20104;-86
2023/04/08 03:08:28;;;;;;;20.75;11.20;;;7.80;99.90;;;;;;5033442;28;20053;-89
2023/04/08 03:10:53;;;;;;;19.88;10.70;;;8.90;99.90;;;;;;5013823;28;20021;-86
2023/04/08 03:13:19;;;;;;;16.63;10.45;;;7.80;99.90;;;;;;5039841;28;20026;-85
2023/04/08 03:15:45;;;;;;;19.15;10.73;;;8.00;99.90;;;;;;5032579;28;20056;-86
2023/04/08 03:18:11;;;;;;;20.08;11.07;;;8.60;99.90;;;;;;5034087;28;20041;-88
2023/04/08 03:20:36;;;;;;;19.92;10.57;;;8.40;99.90;;;;;;5032466;28;20056;-87
2023/04/08 03:23:02;;;;;;;16.90;10.70;;;8.10;99.90;;;;;;5017862;28;20025;-87
2023/04/08 03:25:28;;;;;;;17.30;10.68;;;8.00;99.90;;;;;;5033032;28;20091;-87
2023/04/08 03:27:54;;;;;;;18.75;10.18;;;8.20;99.90;;;;;;5018196;28;20079;-85
2023/04/08 03:30:22;;;;;;;16.10;10.75;;;8.90;99.90;;;;;;5021358;28;20021;-89
2023/04/08 03:32:48;;;;;;;18.55;11.07;;;7.90;99.90;;;;;;5034608;28;20026;-86
2023/04/08 03:35:14;;;;;;;18.45;10.75;;;8.30;99.90;;;;;;5019156;28;20029;-87
2023/04/08 03:37:39;;;;;;;18.80;11.25;;;7.80;99.90;;;;;;5036568;28;20033;-88
2023/04/08 03:40:06;;;;;;;19.10;11.25;;;8.80;99.90;;;;;;5019592;28;20124;-87
2023/04/08 03:42:32;;;;;;;17.48;10.73;;;7.80;99.90;;;;;;5026403;28;20029;-90
2023/04/08 03:44:58;;;;;;;14.75;10.38;;;7.80;99.90;;;;;;5022796;28;20037;-86
2023/04/08 03:47:23;;;;;;;17.83;11.43;;;7.80;99.90;;;;;;5022152;28;20038;-89
2023/04/08 03:49:51;;;;;;;18.17;11.27;;;7.90;99.90;;;;;;5028405;28;20037;-90
2023/04/08 03:52:17;;;;;;;19.13;12.02;;;7.80;99.90;;;;;;5023386;28;20101;-89
2023/04/08 03:54:42;;;;;;;18.73;11.43;;;7.80;99.90;;;;;;5015933;28;20479;-86
2023/04/08 03:57:08;;;;;;;21.02;11.20;;;7.80;99.90;;;;;;5022447;28;20021;-88
2023/04/08 03:59:35;;;;;;;16.90;11.40;;;7.80;99.90;;;;;;5019590;28;20048;-87
2023/04/08 04:02:10;;;;;;;17.00;10.55;;;7.80;99.90;;;;;;5018544;28;20037;-88
2023/04/08 04:04:35;;;;;;;17.88;10.88;;;8.70;99.90;;;;;;5017741;28;20057;-87
2023/04/08 04:07:01;;;;;;;18.75;10.73;;;8.40;99.90;;;;;;5033504;28;20033;-86
2023/04/08 04:09:27;;;;;;;18.40;10.52;;;8.50;99.90;;;;;;5010335;28;20064;-85
2023/04/08 04:11:53;;;;;;;18.60;11.35;;;8.00;99.90;;;;;;5022948;28;20060;-86
2023/04/08 04:14:18;;;;;;;16.75;10.88;;;7.90;99.90;;;;;;5025468;28;20068;-85
2023/04/08 04:16:44;;;;;;;15.15;10.13;;;8.50;99.90;;;;;;5026523;28;20108;-86
2023/04/08 04:19:10;;;;;;;16.35;9.68;;;8.20;99.90;;;;;;5038817;28;20037;-84
2023/04/08 04:21:36;;;;;;;19.80;10.77;;;8.60;99.90;;;;;;5047577;28;20056;-87
2023/04/08 04:24:01;;;;;;;16.27;10.32;;;8.00;99.90;;;;;;5030983;28;20069;-84
2023/04/08 04:26:27;;;;;;;15.80;9.85;;;7.90;99.90;;;;;;5038001;28;20026;-88
2023/04/08 04:28:52;;;;;;;18.88;10.73;;;8.40;99.90;;;;;;5039792;28;20029;-85
2023/04/08 04:31:25;;;;;;;18.90;10.82;;;8.00;99.90;;;;;;5041874;28;20041;-87
2023/04/08 04:33:50;;;;;;;19.17;10.93;;;7.90;99.90;;;;;;5029239;28;20023;-86
2023/04/08 04:36:16;;;;;;;17.77;10.90;;;9.20;99.90;;;;;;5028728;28;20104;-86
2023/04/08 04:38:43;;;;;;;16.92;10.05;;;8.20;99.90;;;;;;5024451;28;20022;-86
2023/04/08 04:41:09;;;;;;;16.83;10.68;;;8.00;99.90;;;;;;5014164;28;20386;-84
2023/04/08 04:43:34;;;;;;;19.50;11.18;;;8.40;99.90;;;;;;5025749;28;20025;-83
2023/04/08 04:46:01;;;;;;;19.83;11.43;;;8.00;99.90;;;;;;5014525;28;20084;-85
2023/04/08 04:48:26;;;;;;;17.75;10.68;;;8.30;99.90;;;;;;5002953;28;20021;-84
2023/04/08 04:50:56;;;;;;;21.27;11.52;;;8.60;99.90;;;;;;5043682;28;20821;-85
2023/04/08 04:53:22;;;;;;;20.33;11.30;;;8.20;99.90;;;;;;5019309;28;20397;-88
2023/04/08 04:55:49;;;;;;;16.85;10.85;;;7.90;99.90;;;;;;5032835;28;20076;-84
2023/04/08 04:58:15;;;;;;;18.25;11.13;;;7.90;99.90;;;;;;5024566;28;20029;-87
2023/04/08 05:00:40;;;;;;;16.75;10.05;;;8.40;99.90;;;;;;5027139;28;20487;-84
2023/04/08 05:03:06;;;;;;;18.30;10.77;;;8.40;99.90;;;;;;5026746;28;20031;-85
2023/04/08 05:05:32;;;;;;;19.27;11.27;;;8.00;99.90;;;;;;5029510;28;20479;-89
2023/04/08 05:07:58;;;;;;;17.95;11.05;;;8.00;99.90;;;;;;5043081;28;20029;-84
2023/04/08 05:10:23;;;;;;;19.83;11.65;;;8.10;99.90;;;;;;5023101;28;20071;-87
2023/04/08 05:12:49;;;;;;;20.05;11.90;;;7.90;99.90;;;;;;5026373;28;20024;-87
2023/04/08 05:15:15;;;;;;;19.55;12.05;;;8.00;99.90;;;;;;5034121;28;20043;-86
2023/04/08 05:17:41;;;;;;;25.80;15.13;;;8.20;99.90;;;;;;5035745;28;20117;-84
2023/04/08 05:20:07;;;;;;;23.17;16.00;;;8.50;99.90;;;;;;5025490;28;20036;-88
2023/04/08 05:22:33;;;;;;;25.42;16.73;;;8.00;99.90;;;;;;5023888;28;20183;-88
2023/04/08 05:24:59;;;;;;;24.65;16.77;;;8.10;99.90;;;;;;5038442;28;20013;-88
2023/04/08 05:27:25;;;;;;;29.65;17.58;;;8.90;99.90;;;;;;5028564;28;20259;-88
2023/04/08 05:29:50;;;;;;;25.73;16.73;;;8.00;99.90;;;;;;5027741;28;20002;-88
2023/04/08 05:32:16;;;;;;;27.67;16.58;;;8.30;99.90;;;;;;5026607;28;20606;-88
2023/04/08 05:34:42;;;;;;;21.92;15.85;;;8.50;99.90;;;;;;5043415;28;20625;-86
2023/04/08 05:37:08;;;;;;;23.48;16.05;;;8.00;99.90;;;;;;5039854;28;20034;-87
2023/04/08 05:39:33;;;;;;;24.77;15.57;;;8.50;99.90;;;;;;5014988;28;20573;-87
2023/04/08 05:41:59;;;;;;;19.20;14.23;;;8.20;99.90;;;;;;5024577;28;20025;-87
2023/04/08 05:44:24;;;;;;;21.20;13.73;;;8.50;99.90;;;;;;5021390;28;20025;-87
2023/04/08 05:46:51;;;;;;;20.42;13.95;;;9.60;99.90;;;;;;5019301;28;20052;-85
2023/04/08 05:49:17;;;;;;;21.85;13.95;;;8.70;99.90;;;;;;5042057;28;20025;-88
2023/04/08 05:51:42;;;;;;;18.17;12.15;;;8.80;99.90;;;;;;5022711;28;20119;-86
2023/04/08 05:54:08;;;;;;;20.08;11.63;;;8.10;99.90;;;;;;5017513;28;20028;-85
2023/04/08 05:56:34;;;;;;;20.40;12.35;;;8.70;99.90;;;;;;5037714;28;20014;-88
2023/04/08 05:59:00;;;;;;;20.10;12.88;;;9.00;99.90;;;;;;5040268;28;20020;-86
2023/04/08 06:01:26;;;;;;;21.85;13.40;;;8.20;99.90;;;;;;5025254;28;20026;-86
2023/04/08 06:03:52;;;;;;;18.52;12.05;;;8.50;99.90;;;;;;5022991;28;20084;-87
2023/04/08 06:06:17;;;;;;;18.83;12.50;;;8.80;99.90;;;;;;5015269;28;20033;-88
2023/04/08 06:08:43;;;;;;;22.10;12.73;;;8.40;99.90;;;;;;5042866;28;20026;-87
2023/04/08 06:11:09;;;;;;;21.85;12.10;;;8.30;99.90;;;;;;5022839;28;20021;-89
2023/04/08 06:13:34;;;;;;;20.33;12.90;;;7.90;99.90;;;;;;5022532;28;20018;-87
2023/04/08 06:16:13;;;;;;;23.90;12.75;;;8.20;99.90;;;;;;5017674;28;20017;-87
2023/04/08 06:18:39;;;;;;;20.50;12.75;;;8.10;99.90;;;;;;5045180;28;20026;-86
2023/04/08 06:21:05;;;;;;;21.63;12.52;;;9.00;99.90;;;;;;5049897;28;20036;-86
2023/04/08 06:23:31;;;;;;;21.63;11.57;;;8.80;99.90;;;;;;5027798;28;20017;-87
2023/04/08 06:25:57;;;;;;;19.65;11.27;;;8.60;99.90;;;;;;5032351;28;20046;-87
2023/04/08 06:28:23;;;;;;;23.15;11.25;;;8.90;99.90;;;;;;5041264;28;20038;-88
2023/04/08 06:30:49;;;;;;;23.80;10.80;;;9.30;99.90;;;;;;5029280;28;20044;-88
2023/04/08 06:33:14;;;;;;;19.73;11.52;;;9.40;99.90;;;;;;5043744;28;20103;-87
2023/04/08 06:35:40;;;;;;;20.73;11.07;;;8.50;99.90;;;;;;5023094;28;20143;-85
2023/04/08 06:38:06;;;;;;;20.75;11.30;;;8.50;99.90;;;;;;5043402;28;20146;-89
2023/04/08 06:40:31;;;;;;;20.77;11.45;;;8.50;99.90;;;;;;5027665;28;20190;-87
2023/04/08 06:42:57;;;;;;;19.30;11.40;;;8.90;99.90;;;;;;5025172;28;20036;-85
2023/04/08 06:45:23;;;;;;;18.20;10.60;;;9.20;99.90;;;;;;5021922;28;20052;-88
2023/04/08 06:47:48;;;;;;;18.75;11.43;;;8.60;99.90;;;;;;5038731;28;20064;-88
2023/04/08 06:50:14;;;;;;;17.58;10.57;;;8.60;99.90;;;;;;5027459;28;20436;-87
2023/04/08 06:52:40;;;;;;;18.15;10.80;;;8.70;99.90;;;;;;5049205;28;20017;-88
2023/04/08 06:55:06;;;;;;;20.20;10.98;;;9.00;99.90;;;;;;5026980;28;20056;-86
2023/04/08 06:57:31;;;;;;;17.25;10.55;;;8.70;99.90;;;;;;5045079;28;20029;-86
2023/04/08 06:59:59;;;;;;;14.85;10.15;;;8.90;99.90;;;;;;5046223;28;20504;-90
2023/04/08 07:02:25;;;;;;;17.15;10.65;;;8.80;99.90;;;;;;5034340;28;20027;-89
2023/04/08 07:04:50;;;;;;;21.00;11.02;;;9.30;99.90;;;;;;5033691;28;20033;-88
2023/04/08 07:07:16;;;;;;;17.63;10.45;;;9.50;99.90;;;;;;5037826;28;20040;-90
2023/04/08 07:09:44;;;;;;;20.15;11.30;;;9.00;99.90;;;;;;5051097;28;20113;-88
2023/04/08 07:12:10;;;;;;;17.67;11.30;;;9.00;99.90;;;;;;5044105;28;20021;-87
2023/04/08 07:14:36;;;;;;;18.48;11.05;;;9.60;99.90;;;;;;5027995;28;20037;-86
2023/04/08 07:17:02;;;;;;;19.42;10.43;;;9.10;99.90;;;;;;5032072;28;20095;-89
2023/04/08 07:19:27;;;;;;;18.52;10.73;;;9.20;99.90;;;;;;5031857;28;20461;-90
2023/04/08 07:21:53;;;;;;;16.02;10.48;;;9.10;99.90;;;;;;5034492;28;20033;-86
2023/04/08 07:24:19;;;;;;;19.00;11.38;;;9.40;99.90;;;;;;5026553;28;20029;-88
2023/04/08 07:26:44;;;;;;;18.25;10.80;;;9.20;99.90;;;;;;5046073;28;20029;-86
2023/04/08 07:29:10;;;;;;;17.98;11.23;;;9.40;99.90;;;;;;5035593;28;20029;-89
2023/04/08 07:31:36;;;;;;;20.45;11.27;;;9.70;99.90;;;;;;5035657;28;20795;-86
2023/04/08 07:34:01;;;;;;;18.52;10.75;;;9.30;99.90;;;;;;5026474;28;20064;-88
2023/04/08 07:36:27;;;;;;;18.63;11.27;;;9.40;99.90;;;;;;5028234;28;20491;-87
2023/04/08 07:38:53;;;;;;;22.05;10.98;;;9.90;99.90;;;;;;5044774;28;20025;-88
2023/04/08 07:41:20;;;;;;;20.30;11.80;;;10.10;99.90;;;;;;5023090;28;20037;-87
2023/04/08 07:43:45;;;;;;;23.17;12.43;;;9.60;99.90;;;;;;5023500;28;20037;-88
2023/04/08 07:46:14;;;;;;;21.92;10.98;;;10.40;99.90;;;;;;5018445;28;20125;-87
2023/04/08 07:48:39;;;;;;;20.15;11.65;;;10.00;99.90;;;;;;5037202;28;20029;-86
2023/04/08 07:51:07;;;;;;;19.88;11.50;;;10.00;99.90;;;;;;5022229;28;20109;-83
2023/04/08 07:53:33;;;;;;;21.42;11.32;;;10.00;99.90;;;;;;5016847;28;20083;-84
2023/04/08 07:56:07;;;;;;;21.92;12.65;;;10.70;99.90;;;;;;5018967;28;20036;-84
2023/04/08 07:58:33;;;;;;;20.80;11.40;;;10.30;99.90;;;;;;5034953;28;20032;-86
2023/04/08 08:00:58;;;;;;;19.77;11.52;;;10.10;99.90;;;;;;5027834;28;20034;-87
2023/04/08 08:03:24;;;;;;;21.23;12.35;;;10.20;99.90;;;;;;4989799;28;20040;-86
2023/04/08 08:05:52;;;;;;;19.17;11.75;;;10.20;99.90;;;;;;5029070;28;20040;-86
2023/04/08 08:08:18;;;;;;;23.48;12.20;;;10.40;99.90;;;;;;5011227;28;20053;-88
2023/04/08 08:10:43;;;;;;;22.10;12.65;;;10.80;99.90;;;;;;5015729;28;20030;-87
2023/04/08 08:13:11;;;;;;;21.27;12.02;;;10.40;99.90;;;;;;5013510;28;20030;-89
2023/04/08 08:15:36;;;;;;;19.85;12.00;;;11.20;99.90;;;;;;5008388;28;20665;-88
2023/04/08 08:18:02;;;;;;;21.52;11.82;;;10.60;99.90;;;;;;5005374;28;20029;-84
2023/04/08 08:20:28;;;;;;;25.15;13.10;;;10.90;99.90;;;;;;5017944;28;20570;-86
2023/04/08 08:22:53;;;;;;;21.73;12.85;;;10.70;99.90;;;;;;5031952;28;20060;-87
2023/04/08 08:25:19;;;;;;;22.60;12.48;;;10.90;99.90;;;;;;5015745;28;20068;-88
2023/04/08 08:27:45;;;;;;;24.23;13.50;;;10.90;99.90;;;;;;5022447;28;20026;-85
2023/04/08 08:30:11;;;;;;;22.98;12.65;;;10.80;99.90;;;;;;5017622;28;20071;-88
2023/04/08 08:32:37;;;;;;;22.25;12.73;;;11.00;99.90;;;;;;5031344;28;20089;-83
2023/04/08 08:35:03;;;;;;;19.67;12.43;;;11.10;99.90;;;;;;5022129;28;20032;-85
2023/04/08 08:37:29;;;;;;;21.55;12.80;;;11.20;99.90;;;;;;5032890;28;20047;-82
2023/04/08 08:39:57;;;;;;;22.80;12.73;;;11.50;99.90;;;;;;5038296;28;20174;-86
2023/04/08 08:42:25;;;;;;;23.60;13.25;;;11.40;99.90;;;;;;5023415;28;20033;-84
2023/04/08 08:44:51;;;;;;;20.85;12.93;;;11.40;99.90;;;;;;5025037;28;20025;-87
2023/04/08 08:47:17;;;;;;;20.90;12.48;;;12.10;99.90;;;;;;5040132;28;20028;-85
2023/04/08 08:49:46;;;;;;;21.25;12.13;;;11.50;99.90;;;;;;5019461;28;20503;-87
2023/04/08 08:52:16;;;;;;;21.27;11.88;;;11.70;99.90;;;;;;5023488;28;20025;-87
2023/04/08 08:54:43;;;;;;;17.92;11.30;;;12.30;99.90;;;;;;5018764;28;20029;-85
2023/04/08 08:57:19;;;;;;;18.88;11.90;;;12.00;99.90;;;;;;5023584;28;20391;-84
2023/04/08 08:59:46;;;;;;;22.13;13.52;;;11.90;99.90;;;;;;5016708;28;20036;-86
2023/04/08 09:02:28;;;;;;;20.60;12.77;;;11.70;99.90;;;;;;5034687;28;20026;-86
2023/04/08 09:04:59;;;;;;;19.95;11.75;;;11.70;99.90;;;;;;5034483;28;20076;-83
2023/04/08 09:07:29;;;;;;;20.55;12.43;;;11.70;99.90;;;;;;5019040;28;20076;-87
2023/04/08 09:09:57;;;;;;;19.60;11.57;;;11.90;99.90;;;;;;5034724;28;20030;-84
2023/04/08 09:12:24;;;;;;;18.23;11.43;;;11.90;99.90;;;;;;5020628;28;20049;-85
2023/04/08 09:14:50;;;;;;;19.20;11.60;;;12.20;99.90;;;;;;5018742;28;20022;-86
2023/04/08 09:17:32;;;;;;;19.40;11.45;;;12.50;99.90;;;;;;5021448;28;20037;-87
2023/04/08 09:20:14;;;;;;;19.85;11.77;;;12.70;99.90;;;;;;5017859;28;20034;-85
2023/04/08 09:22:57;;;;;;;19.98;11.52;;;12.70;99.90;;;;;;5023153;28;20017;-86
2023/04/08 09:25:25;;;;;;;18.92;11.35;;;12.70;99.90;;;;;;5018875;28;20152;-85
2023/04/08 09:27:52;;;;;;;18.48;10.95;;;12.80;99.90;;;;;;5015734;28;20677;-82
2023/04/08 09:30:18;;;;;;;18.73;10.68;;;13.30;99.90;;;;;;5017932;28;20021;-85
2023/04/08 09:32:52;;;;;;;18.98;11.38;;;12.90;99.90;;;;;;5020282;28;20033;-86
2023/04/08 09:35:20;;;;;;;19.10;11.00;;;13.40;99.90;;;;;;5038893;28;20356;-84
2023/04/08 09:37:46;;;;;;;17.13;11.40;;;13.10;99.90;;;;;;5034693;28;20089;-87
2023/04/08 09:40:14;;;;;;;16.38;10.55;;;13.30;99.90;;;;;;5025282;28;20029;-86
2023/04/08 09:42:50;;;;;;;18.33;11.55;;;13.50;99.90;;;;;;5022506;28;20029;-85
2023/04/08 09:45:17;;;;;;;17.85;10.93;;;13.40;99.90;;;;;;5010533;28;20037;-87
2023/04/08 09:48:15;;;;;;;16.65;10.88;;;13.40;99.90;;;;;;5023273;28;20109;-86
2023/04/08 09:50:49;;;;;;;18.95;10.82;;;13.30;99.90;;;;;;5007347;28;20041;-86
2023/04/08 09:53:28;;;;;;;17.00;11.00;;;13.20;99.90;;;;;;5025549;28;20105;-84
2023/04/08 09:56:00;;;;;;;17.35;10.52;;;13.20;99.90;;;;;;5026294;28;20085;-84
2023/04/08 09:58:31;;;;;;;15.43;10.85;;;13.20;99.90;;;;;;5030470;28;20033;-84
2023/04/08 10:00:57;;;;;;;17.08;10.75;;;13.10;99.90;;;;;;5045984;28;20049;-83
2023/04/08 10:03:37;;;;;;;15.88;9.90;;;13.10;99.90;;;;;;5023984;28;20026;-84
2023/04/08 10:06:03;;;;;;;19.48;11.23;;;13.60;99.90;;;;;;5023202;28;20034;-83
2023/04/08 10:08:37;;;;;;;16.83;10.80;;;13.20;99.90;;;;;;5029272;28;20120;-85
2023/04/08 10:11:06;;;;;;;16.45;9.98;;;13.30;99.90;;;;;;5025890;28;20077;-84
2023/04/08 10:13:33;;;;;;;18.95;10.18;;;13.70;99.90;;;;;;5027178;28;20021;-88
2023/04/08 10:16:24;;;;;;;17.00;10.57;;;14.20;99.90;;;;;;5048478;28;20025;-90
2023/04/08 10:19:13;;;;;;;17.67;10.07;;;14.60;99.90;;;;;;5050381;28;20010;-87
2023/04/08 10:21:47;;;;;;;14.85;10.13;;;14.90;99.90;;;;;;5029473;28;20041;-87
2023/04/08 10:24:24;;;;;;;15.80;9.98;;;15.00;99.90;;;;;;5028490;28;20029;-88
2023/04/08 10:26:50;;;;;;;17.55;10.60;;;14.80;99.90;;;;;;5049417;28;20038;-86
2023/04/08 10:29:20;;;;;;;16.60;10.75;;;14.80;99.90;;;;;;5047177;28;20101;-83
2023/04/08 10:31:51;;;;;;;18.98;11.18;;;14.20;99.90;;;;;;5022184;28;20095;-86
2023/04/08 10:34:23;;;;;;;20.73;13.68;;;13.90;99.90;;;;;;5037614;28;20029;-84
2023/04/08 10:36:54;;;;;;;13.07;9.70;;;13.80;99.90;;;;;;5020146;28;20864;-86
2023/04/08 10:39:20;;;;;;;15.85;10.40;;;13.80;99.90;;;;;;5025847;28;20037;-86
2023/04/08 10:41:51;;;;;;;20.52;12.52;;;13.60;99.90;;;;;;5020042;28;20033;-84
2023/04/08 10:44:31;;;;;;;15.35;10.35;;;13.60;99.90;;;;;;5027056;28;20041;-85
2023/04/08 10:47:00;;;;;;;17.88;11.82;;;13.50;99.90;;;;;;5026211;28;20060;-86
2023/04/08 10:49:41;;;;;;;17.77;10.88;;;13.40;99.90;;;;;;5022057;28;20029;-85
2023/04/08 10:52:08;;;;;;;15.05;10.70;;;13.40;99.90;;;;;;5017929;28;20029;-85
2023/04/08 10:54:37;;;;;;;16.15;9.88;;;13.40;99.90;;;;;;5027612;28;20089;-85
2023/04/08 10:57:04;;;;;;;17.35;10.50;;;13.40;99.90;;;;;;5025768;28;20112;-86
2023/04/08 10:59:31;;;;;;;13.85;9.73;;;13.60;99.90;;;;;;5043489;28;20033;-84
2023/04/08 11:01:57;;;;;;;16.67;10.50;;;14.10;99.90;;;;;;5014524;28;20056;-86
2023/04/08 11:04:24;;;;;;;14.02;9.90;;;14.40;99.90;;;;;;5026706;28;20025;-86
2023/04/08 11:06:52;;;;;;;14.35;9.70;;;14.90;99.90;;;;;;5024451;28;20029;-85
2023/04/08 11:09:18;;;;;;;12.57;9.02;;;15.30;99.90;;;;;;5034231;28;20030;-86
2023/04/08 11:11:45;;;;;;;11.70;8.55;;;15.80;99.90;;;;;;5026445;28;20022;-85
2023/04/08 11:14:12;;;;;;;15.02;9.75;;;15.70;99.90;;;;;;5033818;28;20029;-86
2023/04/08 11:16:40;;;;;;;13.98;9.30;;;15.80;99.90;;;;;;5020359;28;20091;-87
2023/04/08 11:19:06;;;;;;;14.68;9.48;;;15.40;99.90;;;;;;5035803;28;20267;-83
2023/04/08 11:21:35;;;;;;;14.50;10.02;;;15.00;99.90;;;;;;5022036;28;20040;-87
2023/04/08 11:24:06;;;;;;;15.75;10.43;;;14.90;99.90;;;;;;5027411;28;20026;-89
2023/04/08 11:26:32;;;;;;;16.35;10.25;;;14.70;99.90;;;;;;5027399;28;20036;-85
2023/04/08 11:28:59;;;;;;;15.95;9.98;;;14.60;99.90;;;;;;5025152;28;20037;-86
2023/04/08 11:31:26;;;;;;;13.73;8.68;;;14.60;99.90;;;;;;5026383;28;20017;-86
2023/04/08 11:33:53;;;;;;;15.88;9.98;;;14.50;99.90;;;;;;5029869;28;20033;-86
2023/04/08 11:36:20;;;;;;;15.82;10.38;;;14.60;99.90;;;;;;5029570;28;20040;-87
2023/04/08 11:38:46;;;;;;;15.20;9.82;;;14.20;99.90;;;;;;5024385;28;20021;-86
2023/04/08 11:41:13;;;;;;;14.13;9.75;;;14.20;99.90;;;;;;5029078;28;20064;-86
2023/04/08 11:43:39;;;;;;;18.45;9.68;;;14.10;99.90;;;;;;5033052;28;20040;-86
2023/04/08 11:46:12;;;;;;;16.08;9.18;;;14.10;99.90;;;;;;5047948;28;20032;-84
2023/04/08 11:48:40;;;;;;;12.68;8.85;;;14.30;99.90;;;;;;5032543;28;20025;-87
2023/04/08 11:51:12;;;;;;;12.10;8.98;;;14.60;99.90;;;;;;5052961;28;20024;-88
2023/04/08 11:53:38;;;;;;;15.00;8.98;;;15.00;99.90;;;;;;5036364;28;20018;-89
2023/04/08 11:56:21;;;;;;;12.63;8.23;;;15.40;99.90;;;;;;5033243;28;20029;-90
2023/04/08 11:58:47;;;;;;;14.75;8.50;;;15.20;99.90;;;;;;5044869;28;20049;-87
2023/04/08 12:01:16;;;;;;;13.30;7.55;;;15.00;99.90;;;;;;5036280;28;20026;-89
2023/04/08 12:03:59;;;;;;;11.75;7.95;;;14.60;99.90;;;;;;5031999;28;20053;-87
2023/04/08 12:06:26;;;;;;;12.75;8.35;;;14.40;99.90;;;;;;5021030;28;20298;-88
2023/04/08 12:08:53;;;;;;;12.88;8.35;;;14.30;99.90;;;;;;5031869;28;20029;-87
2023/04/08 12:11:19;;;;;;;11.63;8.90;;;14.60;99.90;;;;;;5044853;28;20025;-87
2023/04/08 12:13:49;;;;;;;15.90;9.32;;;14.00;99.90;;;;;;5029919;28;20322;-86
2023/04/08 12:16:15;;;;;;;11.65;8.50;;;14.20;99.90;;;;;;5031498;28;20026;-86
2023/04/08 12:18:41;;;;;;;10.80;8.38;;;13.70;99.90;;;;;;5021781;28;20041;-86
2023/04/08 12:21:07;;;;;;;11.13;8.13;;;13.80;99.90;;;;;;5023517;28;20120;-87
2023/04/08 12:23:32;;;;;;;12.50;8.13;;;13.80;99.90;;;;;;5006300;28;20064;-84
2023/04/08 12:26:01;;;;;;;10.95;7.32;;;13.80;99.90;;;;;;5019019;28;20040;-85
2023/04/08 12:28:26;;;;;;;10.70;8.15;;;13.80;99.90;;;;;;5025098;28;20255;-90
2023/04/08 12:30:55;;;;;;;10.75;7.43;;;13.80;99.90;;;;;;5042080;28;20381;-87
2023/04/08 12:33:20;;;;;;;8.55;6.90;;;13.90;99.40;;;;;;5024649;28;20057;-86
2023/04/08 12:35:46;;;;;;;13.70;7.60;;;13.90;99.50;;;;;;5028101;28;20072;-85
2023/04/08 12:38:12;;;;;;;10.32;7.10;;;13.90;99.60;;;;;;5016907;28;20064;-87